Terminal Aerodrome Forecast
Issued by NWS

Home | Current Version | Previous Version | Text Only | Print | Product List | Glossary On
Versions: 1 2 3 4 5 6 7 8 9 10 11 12
000
FTUS44 KBMX 261739
TAFMGM
TAF
KMGM 261739Z 2618/2718 15010KT P6SM VCTS SCT050CB
      TEMPO 2619/2622 P6SM TSRA BKN050CB
     FM270200 16005KT P6SM SCT060 BKN250
     FM271100 15005KT P6SM BKN015=

USA.gov is the U.S. government's official web portal to all federal, state and local government web resources and services.